createdAt,value
2019-04-04T00:00:32.134Z,911.61
2019-04-04T00:01:32.106Z,911.60
2019-04-04T00:02:32.266Z,911.61
2019-04-04T00:03:32.046Z,911.61
2019-04-04T00:04:32.059Z,911.61
2019-04-04T00:05:31.975Z,911.58
2019-04-04T00:06:31.996Z,911.57
2019-04-04T00:08:31.934Z,911.59
2019-04-04T00:09:33.233Z,911.61
2019-04-04T00:10:32.854Z,911.63
2019-04-04T00:11:31.764Z,911.59
2019-04-04T00:12:31.761Z,911.59
2019-04-04T00:13:31.738Z,911.64
2019-04-04T00:14:31.679Z,911.65
2019-04-04T00:15:31.635Z,911.64
2019-04-04T00:16:31.625Z,911.66
2019-04-04T00:17:31.595Z,911.66
2019-04-04T00:18:31.693Z,911.65
2019-04-04T00:19:31.530Z,911.62
2019-04-04T00:20:31.857Z,911.62
2019-04-04T00:21:31.990Z,911.67
2019-04-04T00:22:31.436Z,911.66
2019-04-04T00:23:31.378Z,911.67
2019-04-04T00:24:31.510Z,911.72
2019-04-04T00:25:31.354Z,911.71
2019-04-04T00:26:31.294Z,911.70
2019-04-04T00:27:31.279Z,911.69
2019-04-04T00:28:31.248Z,911.70
2019-04-04T00:29:31.191Z,911.67
2019-04-04T00:30:31.161Z,911.69
2019-04-04T00:31:31.144Z,911.67
2019-04-04T00:32:31.090Z,911.66
2019-04-04T00:33:31.108Z,911.68
2019-04-04T00:34:31.051Z,911.64
2019-04-04T00:35:31.680Z,911.61
2019-04-04T00:36:33.879Z,911.63
2019-04-04T00:37:30.962Z,911.61
2019-04-04T00:38:30.953Z,911.61
2019-04-04T00:39:30.889Z,911.57
2019-04-04T00:40:30.855Z,911.61
2019-04-04T00:41:30.856Z,911.60
2019-04-04T00:42:30.830Z,911.59
2019-04-04T00:43:30.775Z,911.63
2019-04-04T00:44:30.741Z,911.62
2019-04-04T00:45:30.772Z,911.65
2019-04-04T00:46:30.902Z,911.67
2019-04-04T00:47:32.320Z,911.69
2019-04-04T00:48:32.138Z,911.68
2019-04-04T00:49:30.564Z,911.71
2019-04-04T00:50:30.806Z,911.71
2019-04-04T00:51:30.496Z,911.71
2019-04-04T00:52:30.479Z,911.73
2019-04-04T00:53:30.474Z,911.76
2019-04-04T00:54:30.400Z,911.75
2019-04-04T00:55:30.363Z,911.76
2019-04-04T00:56:30.603Z,911.78
2019-04-04T00:57:30.291Z,911.80
2019-04-04T00:58:30.297Z,911.77
2019-04-04T00:59:30.235Z,911.78
2019-04-04T01:00:30.235Z,911.82
2019-04-04T01:01:30.177Z,911.81
2019-04-04T01:02:30.142Z,911.82
2019-04-04T01:03:30.675Z,911.87
2019-04-04T01:04:31.176Z,911.88
2019-04-04T01:05:30.151Z,911.91
2019-04-04T01:06:30.017Z,911.92
2019-04-04T01:07:29.993Z,911.94
2019-04-04T01:08:29.945Z,911.92
2019-04-04T01:09:29.936Z,911.94
2019-04-04T01:10:29.897Z,911.96
2019-04-04T01:11:29.869Z,911.98
2019-04-04T01:12:29.860Z,911.96
2019-04-04T01:13:29.803Z,911.96
2019-04-04T01:14:29.976Z,911.98
2019-04-04T01:15:31.142Z,912.00
2019-04-04T01:16:29.730Z,911.99
2019-04-04T01:17:29.690Z,911.99
2019-04-04T01:18:29.642Z,911.97
2019-04-04T01:19:29.585Z,911.96
2019-04-04T01:20:29.562Z,911.92
2019-04-04T01:21:29.519Z,911.96
2019-04-04T01:22:29.543Z,911.99
2019-04-04T01:23:29.479Z,911.98
2019-04-04T01:24:29.898Z,911.96
2019-04-04T01:25:31.941Z,911.99
2019-04-04T01:26:29.393Z,911.99
2019-04-04T01:27:29.350Z,911.98
2019-04-04T01:28:29.326Z,912.01
2019-04-04T01:29:29.266Z,911.98
2019-04-04T01:30:29.266Z,911.99
2019-04-04T01:31:29.227Z,911.98
2019-04-04T01:32:29.190Z,911.97
2019-04-04T01:33:29.187Z,911.94
2019-04-04T01:34:29.114Z,911.94
2019-04-04T01:35:29.103Z,911.92
2019-04-04T01:37:29.006Z,911.90
2019-04-04T01:38:29.147Z,911.88
2019-04-04T01:39:30.885Z,911.86
2019-04-04T01:40:28.945Z,911.86
2019-04-04T01:41:28.929Z,911.87
2019-04-04T01:42:29.021Z,911.88
2019-04-04T01:43:28.818Z,911.89
2019-04-04T01:44:28.854Z,911.90
2019-04-04T01:45:28.830Z,911.91
2019-04-04T01:46:28.739Z,911.89
2019-04-04T01:47:28.709Z,911.92
2019-04-04T01:48:28.656Z,911.92
2019-04-04T01:49:28.622Z,911.92
2019-04-04T01:50:28.597Z,911.91
2019-04-04T01:51:28.564Z,911.89
2019-04-04T01:52:28.906Z,911.91
2019-04-04T01:53:30.135Z,911.86
2019-04-04T01:54:29.969Z,911.85
2019-04-04T01:55:28.455Z,911.87
2019-04-04T01:56:28.419Z,911.87
2019-04-04T01:57:28.394Z,911.84
2019-04-04T01:58:28.586Z,911.86
2019-04-04T01:59:28.323Z,911.81
2019-04-04T02:00:28.313Z,911.82
2019-04-04T02:01:28.269Z,911.83
2019-04-04T02:02:28.207Z,911.86
2019-04-04T02:03:28.196Z,911.83
2019-04-04T02:04:28.161Z,911.83
2019-04-04T02:05:28.206Z,911.84
2019-04-04T02:06:28.672Z,911.83
2019-04-04T02:07:29.745Z,911.84
2019-04-04T02:08:28.039Z,911.85
2019-04-04T02:09:27.978Z,911.85
2019-04-04T02:10:27.956Z,911.81
2019-04-04T02:11:27.927Z,911.84
2019-04-04T02:12:27.899Z,911.84
2019-04-04T02:13:27.862Z,911.84
2019-04-04T02:14:27.852Z,911.79
2019-04-04T02:15:27.833Z,911.81
2019-04-04T02:16:27.799Z,911.81
2019-04-04T02:17:27.870Z,911.81
2019-04-04T02:18:27.689Z,911.84
2019-04-04T02:19:27.681Z,911.82
2019-04-04T02:20:27.646Z,911.84
2019-04-04T02:21:28.774Z,911.82
2019-04-04T02:22:30.726Z,911.84
2019-04-04T02:23:27.573Z,911.85
2019-04-04T02:24:27.529Z,911.84
2019-04-04T02:25:27.496Z,911.85
2019-04-04T02:26:27.463Z,911.82
2019-04-04T02:27:27.405Z,911.83
2019-04-04T02:28:27.368Z,911.83
2019-04-04T02:29:27.370Z,911.86
2019-04-04T02:30:27.316Z,911.88
2019-04-04T02:31:27.270Z,911.89
2019-04-04T02:32:27.677Z,911.87
2019-04-04T02:33:31.936Z,911.83
2019-04-04T02:34:27.180Z,911.83
2019-04-04T02:35:27.165Z,911.85
2019-04-04T02:36:27.141Z,911.84
2019-04-04T02:37:27.095Z,911.84
2019-04-04T02:38:28.030Z,911.81
2019-04-04T02:39:27.037Z,911.81
2019-04-04T02:40:26.990Z,911.79
2019-04-04T02:41:26.951Z,911.77
2019-04-04T02:42:26.946Z,911.75
2019-04-04T02:43:28.301Z,911.73
2019-04-04T02:44:26.873Z,911.70
2019-04-04T02:45:26.834Z,911.72
2019-04-04T02:46:26.825Z,911.64
2019-04-04T02:47:26.788Z,911.63
2019-04-04T02:48:26.742Z,911.61
2019-04-04T02:49:29.313Z,911.61
2019-04-04T02:50:26.921Z,911.61
2019-04-04T02:51:26.632Z,911.61
2019-04-04T02:52:26.621Z,911.59
2019-04-04T02:53:26.570Z,911.58
2019-04-04T02:54:26.535Z,911.54
2019-04-04T02:55:29.966Z,911.55
2019-04-04T02:56:26.672Z,911.49
2019-04-04T02:57:26.442Z,911.52
2019-04-04T02:58:26.423Z,911.49
2019-04-04T02:59:26.403Z,911.51
2019-04-04T03:00:27.622Z,911.44
2019-04-04T03:01:26.304Z,911.43
2019-04-04T03:02:26.294Z,911.39
2019-04-04T03:03:26.313Z,911.39
2019-04-04T03:04:26.215Z,911.37
2019-04-04T03:05:26.198Z,911.37
2019-04-04T03:06:26.170Z,911.38
2019-04-04T03:07:29.830Z,911.35
2019-04-04T03:08:26.084Z,911.30
2019-04-04T03:09:26.070Z,911.32
2019-04-04T03:10:26.035Z,911.28
2019-04-04T03:11:25.989Z,911.25
2019-04-04T03:12:26.834Z,911.27
2019-04-04T03:13:25.954Z,911.24
2019-04-04T03:14:25.910Z,911.21
2019-04-04T03:15:25.870Z,911.21
2019-04-04T03:16:25.839Z,911.21
2019-04-04T03:17:25.823Z,911.20
2019-04-04T03:18:25.782Z,911.16
2019-04-04T03:19:25.800Z,911.15
2019-04-04T03:20:25.710Z,911.16
2019-04-04T03:21:25.724Z,911.13
2019-04-04T03:22:27.703Z,911.09
2019-04-04T03:23:25.618Z,911.11
2019-04-04T03:24:25.592Z,911.10
2019-04-04T03:25:25.530Z,911.11
2019-04-04T03:26:25.524Z,911.09
2019-04-04T03:27:26.788Z,911.08
2019-04-04T03:28:25.688Z,911.09
2019-04-04T03:29:25.403Z,911.10
2019-04-04T03:30:25.391Z,911.11
2019-04-04T03:31:25.332Z,911.12
2019-04-04T03:32:25.313Z,911.10
2019-04-04T03:33:29.422Z,911.10
2019-04-04T03:34:25.269Z,911.07
2019-04-04T03:35:27.738Z,911.07
2019-04-04T03:36:25.175Z,911.00
2019-04-04T03:37:25.148Z,911.03
2019-04-04T03:38:25.107Z,910.99
2019-04-04T03:39:25.075Z,910.95
2019-04-04T03:40:25.876Z,910.96
2019-04-04T03:41:25.031Z,910.96
2019-04-04T03:42:24.983Z,910.95
2019-04-04T03:43:24.953Z,910.94
2019-04-04T03:44:24.973Z,910.92
2019-04-04T03:45:27.278Z,910.89
2019-04-04T03:46:24.866Z,910.90
2019-04-04T03:47:24.833Z,910.86
2019-04-04T03:48:24.803Z,910.86
2019-04-04T03:49:24.823Z,910.83
2019-04-04T03:50:29.178Z,910.78
2019-04-04T03:51:24.687Z,910.75
2019-04-04T03:52:24.687Z,910.76
2019-04-04T03:53:24.646Z,910.73
2019-04-04T03:54:24.764Z,910.69
2019-04-04T03:55:27.415Z,910.67
2019-04-04T03:56:24.543Z,910.65
2019-04-04T03:57:24.493Z,910.64
2019-04-04T03:58:26.956Z,910.63
2019-04-04T03:59:24.428Z,910.58
2019-04-04T04:00:24.668Z,910.60
2019-04-04T04:01:24.384Z,910.54
2019-04-04T04:02:24.341Z,910.52
2019-04-04T04:03:24.294Z,910.51
2019-04-04T04:04:27.036Z,910.47
2019-04-04T04:05:24.233Z,910.47
2019-04-04T04:06:24.198Z,910.43
2019-04-04T04:07:24.190Z,910.43
2019-04-04T04:08:24.153Z,910.39
2019-04-04T04:09:26.348Z,910.38
2019-04-04T04:10:24.065Z,910.37
2019-04-04T04:11:24.064Z,910.40
2019-04-04T04:12:24.019Z,910.41
2019-04-04T04:13:23.966Z,910.37
2019-04-04T04:14:23.980Z,910.39
2019-04-04T04:15:23.905Z,910.37
2019-04-04T04:16:23.871Z,910.39
2019-04-04T04:17:23.898Z,910.41
2019-04-04T04:18:23.809Z,910.37
2019-04-04T04:19:24.376Z,910.37
2019-04-04T04:20:23.742Z,910.36
2019-04-04T04:21:23.875Z,910.38
2019-04-04T04:22:23.683Z,910.38
2019-04-04T04:23:24.277Z,910.38
2019-04-04T04:24:23.671Z,910.36
2019-04-04T04:25:23.583Z,910.35
2019-04-04T04:26:23.555Z,910.33
2019-04-04T04:27:23.520Z,910.36
2019-04-04T04:28:23.489Z,910.35
2019-04-04T04:29:23.458Z,910.37
2019-04-04T04:30:23.442Z,910.38
2019-04-04T04:31:23.412Z,910.39
2019-04-04T04:32:23.366Z,910.39
2019-04-04T04:33:23.343Z,910.41
2019-04-04T04:34:23.298Z,910.39
2019-04-04T04:35:23.268Z,910.39
2019-04-04T04:36:23.261Z,910.39
2019-04-04T04:37:23.213Z,910.39
2019-04-04T04:38:25.959Z,910.40
2019-04-04T04:39:23.135Z,910.39
2019-04-04T04:40:23.089Z,910.39
2019-04-04T04:41:23.156Z,910.37
2019-04-04T04:42:26.153Z,910.38
2019-04-04T04:43:23.020Z,910.37
2019-04-04T04:44:22.999Z,910.35
2019-04-04T04:45:22.940Z,910.33
2019-04-04T04:46:22.896Z,910.32
2019-04-04T04:47:23.825Z,910.28
2019-04-04T04:48:25.758Z,910.27
2019-04-04T04:49:23.419Z,910.26
2019-04-04T04:50:22.770Z,910.27
2019-04-04T04:51:22.751Z,910.25
2019-04-04T04:52:22.719Z,910.25
2019-04-04T04:53:22.685Z,910.26
2019-04-04T04:54:22.891Z,910.27
2019-04-04T04:55:24.493Z,910.26
2019-04-04T04:56:22.571Z,910.25
2019-04-04T04:57:29.361Z,910.27
2019-04-04T04:58:22.533Z,910.26
2019-04-04T04:59:22.471Z,910.22
2019-04-04T05:00:22.466Z,910.25
2019-04-04T05:01:22.404Z,910.24
2019-04-04T05:02:22.932Z,910.24
2019-04-04T05:03:24.027Z,910.28
2019-04-04T05:04:22.307Z,910.26
2019-04-04T05:05:22.275Z,910.26
2019-04-04T05:06:22.244Z,910.21
2019-04-04T05:07:22.257Z,910.22
2019-04-04T05:08:22.177Z,910.23
2019-04-04T05:09:22.145Z,910.22
2019-04-04T05:10:22.110Z,910.19
2019-04-04T05:11:22.109Z,910.18
2019-04-04T05:12:22.260Z,910.14
2019-04-04T05:13:24.594Z,910.09
2019-04-04T05:14:22.000Z,910.07
2019-04-04T05:15:21.956Z,910.08
2019-04-04T05:16:21.917Z,910.07
2019-04-04T05:17:21.902Z,910.05
2019-04-04T05:18:21.904Z,910.01
2019-04-04T05:19:21.821Z,910.01
2019-04-04T05:20:23.195Z,910.01
2019-04-04T05:21:25.455Z,910.00
2019-04-04T05:22:21.754Z,909.99
2019-04-04T05:23:21.705Z,910.01
2019-04-04T05:24:21.807Z,909.96
2019-04-04T05:25:21.642Z,909.98
2019-04-04T05:26:21.593Z,909.97
2019-04-04T05:27:21.554Z,909.94
2019-04-04T05:28:21.522Z,909.94
2019-04-04T05:29:21.534Z,909.94
2019-04-04T05:30:21.710Z,909.92
2019-04-04T05:31:21.446Z,909.94
2019-04-04T05:32:21.855Z,909.94
2019-04-04T05:33:22.843Z,909.95
2019-04-04T05:34:21.345Z,909.92
2019-04-04T05:35:21.313Z,909.92
2019-04-04T05:36:21.280Z,909.92
2019-04-04T05:37:21.230Z,909.90
2019-04-04T05:38:21.214Z,909.92
2019-04-04T05:39:21.192Z,909.92
2019-04-04T05:40:23.251Z,909.91
2019-04-04T05:41:21.124Z,909.89
2019-04-04T05:42:21.064Z,909.88
2019-04-04T05:43:21.056Z,909.86
2019-04-04T05:44:21.027Z,909.83
2019-04-04T05:45:20.976Z,909.81
2019-04-04T05:46:20.935Z,909.78
2019-04-04T05:47:22.906Z,909.78
2019-04-04T05:48:20.876Z,909.80
2019-04-04T05:49:20.858Z,909.78
2019-04-04T05:50:20.827Z,909.79
2019-04-04T05:51:20.941Z,909.81
2019-04-04T05:52:20.741Z,909.80
2019-04-04T05:53:21.549Z,909.79
2019-04-04T05:54:20.671Z,909.78
2019-04-04T05:55:20.656Z,909.76
2019-04-04T05:56:20.652Z,909.76
2019-04-04T05:57:20.783Z,909.78
2019-04-04T05:58:22.559Z,909.74
2019-04-04T05:59:23.555Z,909.77
2019-04-04T06:00:20.513Z,909.74
2019-04-04T06:01:20.461Z,909.71
2019-04-04T06:02:20.434Z,909.75
2019-04-04T06:03:20.393Z,909.69
2019-04-04T06:04:20.363Z,909.68
2019-04-04T06:05:20.335Z,909.67
2019-04-04T06:06:20.310Z,909.69
2019-04-04T06:07:20.266Z,909.65
2019-04-04T06:08:20.230Z,909.67
2019-04-04T06:09:20.183Z,909.65
2019-04-04T06:10:20.173Z,909.60
2019-04-04T06:11:21.647Z,909.63
2019-04-04T06:12:20.101Z,909.59
2019-04-04T06:13:22.237Z,909.59
2019-04-04T06:14:20.704Z,909.57
2019-04-04T06:15:20.004Z,909.56
2019-04-04T06:16:19.972Z,909.57
2019-04-04T06:17:19.914Z,909.55
2019-04-04T06:18:19.891Z,909.57
2019-04-04T06:19:19.871Z,909.49
2019-04-04T06:20:19.852Z,909.49
2019-04-04T06:21:19.806Z,909.49
2019-04-04T06:22:21.156Z,909.46
2019-04-04T06:23:20.592Z,909.50
2019-04-04T06:24:19.692Z,909.49
2019-04-04T06:25:19.674Z,909.45
2019-04-04T06:26:19.644Z,909.42
2019-04-04T06:27:19.608Z,909.39
2019-04-04T06:28:19.580Z,909.41
2019-04-04T06:29:19.829Z,909.38
2019-04-04T06:30:20.124Z,909.41
2019-04-04T06:31:19.488Z,909.41
2019-04-04T06:32:19.442Z,909.35
2019-04-04T06:33:19.393Z,909.37
2019-04-04T06:34:19.383Z,909.37
2019-04-04T06:35:19.345Z,909.33
2019-04-04T06:36:19.319Z,909.33
2019-04-04T06:37:20.064Z,909.35
2019-04-04T06:38:19.249Z,909.34
2019-04-04T06:39:19.219Z,909.36
2019-04-04T06:40:19.183Z,909.33
2019-04-04T06:41:19.224Z,909.33
2019-04-04T06:42:19.125Z,909.35
2019-04-04T06:43:19.075Z,909.33
2019-04-04T06:44:19.028Z,909.33
2019-04-04T06:45:19.015Z,909.35
2019-04-04T06:46:22.513Z,909.34
2019-04-04T06:47:18.976Z,909.37
2019-04-04T06:48:18.925Z,909.40
2019-04-04T06:49:18.868Z,909.40
2019-04-04T06:50:18.835Z,909.39
2019-04-04T06:51:18.821Z,909.42
2019-04-04T06:52:19.246Z,909.41
2019-04-04T06:53:20.403Z,909.38
2019-04-04T06:54:18.707Z,909.37
2019-04-04T06:55:18.674Z,909.41
2019-04-04T06:56:18.659Z,909.41
2019-04-04T06:57:18.616Z,909.41
2019-04-04T06:58:18.586Z,909.39
2019-04-04T06:59:18.562Z,909.39
2019-04-04T07:00:18.505Z,909.38
2019-04-04T07:01:21.072Z,909.36
2019-04-04T07:02:18.458Z,909.39
2019-04-04T07:03:18.423Z,909.41
2019-04-04T07:04:18.391Z,909.39
2019-04-04T07:05:18.355Z,909.37
2019-04-04T07:06:18.308Z,909.38
2019-04-04T07:07:18.291Z,909.34
2019-04-04T07:08:18.237Z,909.37
2019-04-04T07:09:19.028Z,909.37
2019-04-04T07:10:20.935Z,909.40
2019-04-04T07:11:21.369Z,909.34
2019-04-04T07:12:24.430Z,909.35
2019-04-04T07:13:22.238Z,909.35
2019-04-04T07:14:18.042Z,909.36
2019-04-04T07:15:18.008Z,909.34
2019-04-04T07:16:17.982Z,909.35
2019-04-04T07:17:17.944Z,909.34
2019-04-04T07:18:17.934Z,909.32
2019-04-04T07:19:17.900Z,909.32
2019-04-04T07:20:17.869Z,909.34
2019-04-04T07:21:19.717Z,909.34
2019-04-04T07:22:20.405Z,909.32
2019-04-04T07:23:17.744Z,909.35
2019-04-04T07:24:17.710Z,909.32
2019-04-04T07:25:17.684Z,909.31
2019-04-04T07:26:17.674Z,909.29
2019-04-04T07:27:17.635Z,909.30
2019-04-04T07:28:19.094Z,909.27
2019-04-04T07:29:17.545Z,909.24
2019-04-04T07:30:17.548Z,909.24
2019-04-04T07:31:17.500Z,909.28
2019-04-04T07:32:17.453Z,909.23
2019-04-04T07:33:17.424Z,909.26
2019-04-04T07:34:17.407Z,909.26
2019-04-04T07:35:17.735Z,909.25
2019-04-04T07:36:18.187Z,909.27
2019-04-04T07:37:17.280Z,909.25
2019-04-04T07:38:17.251Z,909.24
2019-04-04T07:39:17.220Z,909.26
2019-04-04T07:40:20.092Z,909.27
2019-04-04T07:41:17.171Z,909.30
2019-04-04T07:42:17.115Z,909.28
2019-04-04T07:43:19.248Z,909.29
2019-04-04T07:44:17.062Z,909.29
2019-04-04T07:45:17.022Z,909.28
2019-04-04T07:46:17.242Z,909.28
2019-04-04T07:47:16.961Z,909.27
2019-04-04T07:48:18.491Z,909.29
2019-04-04T07:49:16.887Z,909.29
2019-04-04T07:50:16.852Z,909.31
2019-04-04T07:51:16.821Z,909.35
2019-04-04T07:52:17.300Z,909.35
2019-04-04T07:53:16.786Z,909.35
2019-04-04T07:54:16.739Z,909.40
2019-04-04T07:55:16.709Z,909.42
2019-04-04T07:56:16.677Z,909.44
2019-04-04T07:57:17.302Z,909.40
2019-04-04T07:58:16.609Z,909.41
2019-04-04T07:59:16.580Z,909.43
2019-04-04T08:00:16.792Z,909.37
2019-04-04T08:01:16.491Z,909.38
2019-04-04T08:02:16.458Z,909.40
2019-04-04T08:03:16.421Z,909.40
2019-04-04T08:04:16.387Z,909.42
2019-04-04T08:05:16.378Z,909.40
2019-04-04T08:06:16.344Z,909.39
2019-04-04T08:07:16.289Z,909.39
2019-04-04T08:08:16.257Z,909.40
2019-04-04T08:09:16.270Z,909.42
2019-04-04T08:10:20.851Z,909.41
2019-04-04T08:11:16.177Z,909.41
2019-04-04T08:12:16.122Z,909.44
2019-04-04T08:13:16.115Z,909.38
2019-04-04T08:14:16.091Z,909.39
2019-04-04T08:15:16.059Z,909.41
2019-04-04T08:16:15.993Z,909.37
2019-04-04T08:17:18.673Z,909.39
2019-04-04T08:18:15.945Z,909.39
2019-04-04T08:19:15.911Z,909.39
2019-04-04T08:20:15.877Z,909.36
2019-04-04T08:21:16.004Z,909.39
2019-04-04T08:22:15.938Z,909.37
2019-04-04T08:23:15.822Z,909.40
2019-04-04T08:24:15.746Z,909.39
2019-04-04T08:25:15.716Z,909.38
2019-04-04T08:26:15.701Z,909.37
2019-04-04T08:27:15.795Z,909.41
2019-04-04T08:28:15.616Z,909.41
2019-04-04T08:29:15.560Z,909.40
2019-04-04T08:30:15.546Z,909.41
2019-04-04T08:31:15.524Z,909.42
2019-04-04T08:32:15.485Z,909.43
2019-04-04T08:33:15.432Z,909.42
2019-04-04T08:34:15.394Z,909.46
2019-04-04T08:35:15.384Z,909.44
2019-04-04T08:36:15.357Z,909.41
2019-04-04T08:37:15.313Z,909.44
2019-04-04T08:38:15.259Z,909.43
2019-04-04T08:39:15.252Z,909.40
2019-04-04T08:40:15.203Z,909.37
2019-04-04T08:41:15.184Z,909.39
2019-04-04T08:42:15.133Z,909.39
2019-04-04T08:43:15.115Z,909.37
2019-04-04T08:44:15.079Z,909.37
2019-04-04T08:45:15.052Z,909.34
2019-04-04T08:46:15.014Z,909.37
2019-04-04T08:47:14.962Z,909.33
2019-04-04T08:48:14.949Z,909.38
2019-04-04T08:49:14.988Z,909.38
2019-04-04T08:50:14.865Z,909.36
2019-04-04T08:51:14.852Z,909.39
2019-04-04T08:52:17.262Z,909.39
2019-04-04T08:53:14.877Z,909.39
2019-04-04T08:54:14.738Z,909.38
2019-04-04T08:55:14.703Z,909.40
2019-04-04T08:56:14.660Z,909.40
2019-04-04T08:57:14.626Z,909.37
2019-04-04T08:58:14.600Z,909.37
2019-04-04T08:59:14.565Z,909.38
2019-04-04T09:00:14.530Z,909.38
2019-04-04T09:01:14.500Z,909.41
2019-04-04T09:02:14.464Z,909.42
2019-04-04T09:03:14.430Z,909.42
2019-04-04T09:04:14.516Z,909.45
2019-04-04T09:05:14.364Z,909.52
2019-04-04T09:06:14.346Z,909.51
2019-04-04T09:07:14.394Z,909.52
2019-04-04T09:08:14.278Z,909.52
2019-04-04T09:09:14.246Z,909.54
2019-04-04T09:10:14.197Z,909.54
2019-04-04T09:11:14.163Z,909.54
2019-04-04T09:12:14.129Z,909.57
2019-04-04T09:13:14.094Z,909.57
2019-04-04T09:14:14.078Z,909.56
2019-04-04T09:15:14.032Z,909.57
2019-04-04T09:16:14.025Z,909.56
2019-04-04T09:17:13.980Z,909.61
2019-04-04T09:18:13.950Z,909.61
2019-04-04T09:19:13.923Z,909.57
2019-04-04T09:20:13.877Z,909.59
2019-04-04T09:21:13.845Z,909.60
2019-04-04T09:22:13.811Z,909.60
2019-04-04T09:23:13.769Z,909.62
2019-04-04T09:24:13.732Z,909.62
2019-04-04T09:25:13.716Z,909.63
2019-04-04T09:26:13.696Z,909.64
2019-04-04T09:27:13.646Z,909.64
2019-04-04T09:28:13.588Z,909.68
2019-04-04T09:29:13.560Z,909.70
2019-04-04T09:30:13.696Z,909.67
2019-04-04T09:31:13.510Z,909.72
2019-04-04T09:32:13.487Z,909.75
2019-04-04T09:33:13.424Z,909.75
2019-04-04T09:34:13.412Z,909.78
2019-04-04T09:35:13.364Z,909.81
2019-04-04T09:36:13.340Z,909.84
2019-04-04T09:37:13.317Z,909.86
2019-04-04T09:38:13.258Z,909.88
2019-04-04T09:39:13.241Z,909.92
2019-04-04T09:40:13.215Z,909.95
2019-04-04T09:41:13.159Z,909.94
2019-04-04T09:42:13.121Z,909.96
2019-04-04T09:43:13.108Z,909.98
2019-04-04T09:44:13.061Z,910.03
2019-04-04T09:45:13.042Z,910.06
2019-04-04T09:46:13.014Z,910.07
2019-04-04T09:47:12.982Z,910.10
2019-04-04T09:48:12.922Z,910.12
2019-04-04T09:49:13.184Z,910.14
2019-04-04T09:50:12.955Z,910.08
2019-04-04T09:51:12.845Z,910.12
2019-04-04T09:52:12.794Z,910.13
2019-04-04T09:53:12.761Z,910.12
2019-04-04T09:54:12.745Z,910.14
2019-04-04T09:55:12.695Z,910.13
2019-04-04T09:56:12.679Z,910.18
2019-04-04T09:57:12.648Z,910.16
2019-04-04T09:58:12.621Z,910.18
2019-04-04T09:59:12.598Z,910.18
2019-04-04T10:00:12.554Z,910.22
2019-04-04T10:01:12.516Z,910.22
2019-04-04T10:02:12.483Z,910.20
2019-04-04T10:03:12.449Z,910.23
2019-04-04T10:04:12.394Z,910.26
2019-04-04T10:05:12.381Z,910.30
2019-04-04T10:06:12.363Z,910.29
2019-04-04T10:07:12.322Z,910.34
2019-04-04T10:08:12.291Z,910.36
2019-04-04T10:09:15.978Z,910.35
2019-04-04T10:10:12.206Z,910.36
2019-04-04T10:11:12.190Z,910.39
2019-04-04T10:12:12.163Z,910.42
2019-04-04T10:13:12.105Z,910.44
2019-04-04T10:14:12.097Z,910.43
2019-04-04T10:15:12.066Z,910.50
2019-04-04T10:16:12.031Z,910.50
2019-04-04T10:17:12.011Z,910.50
2019-04-04T10:18:11.952Z,910.52
2019-04-04T10:19:11.911Z,910.54
2019-04-04T10:20:11.904Z,910.53
2019-04-04T10:21:12.565Z,910.55
2019-04-04T10:22:11.973Z,910.56
2019-04-04T10:23:13.072Z,910.58
2019-04-04T10:24:11.770Z,910.62
2019-04-04T10:25:11.742Z,910.64
2019-04-04T10:26:11.715Z,910.67
2019-04-04T10:27:11.675Z,910.68
2019-04-04T10:28:11.784Z,910.69
2019-04-04T10:29:11.612Z,910.70
2019-04-04T10:30:11.601Z,910.70
2019-04-04T10:31:11.535Z,910.74
2019-04-04T10:32:11.497Z,910.77
2019-04-04T10:33:11.466Z,910.77
2019-04-04T10:34:11.434Z,910.81
2019-04-04T10:35:11.404Z,910.83
2019-04-04T10:36:11.370Z,910.86
2019-04-04T10:37:11.343Z,910.98
2019-04-04T10:38:11.365Z,910.95
2019-04-04T10:40:11.249Z,910.98
2019-04-04T10:41:11.213Z,910.98
2019-04-04T10:42:11.200Z,910.99
2019-04-04T10:43:11.156Z,910.99
2019-04-04T10:44:11.120Z,911.00
2019-04-04T10:45:11.093Z,911.06
2019-04-04T10:46:11.054Z,911.04
2019-04-04T10:47:11.027Z,911.03
2019-04-04T10:48:11.013Z,911.00
2019-04-04T10:49:10.968Z,911.05
2019-04-04T10:50:10.929Z,911.05
2019-04-04T10:51:10.919Z,911.05
2019-04-04T10:52:10.866Z,911.06
2019-04-04T10:53:10.834Z,911.04
2019-04-04T10:54:10.828Z,911.04
2019-04-04T10:55:10.805Z,911.07
2019-04-04T10:56:10.763Z,911.07
2019-04-04T10:57:10.710Z,911.12
2019-04-04T10:58:10.712Z,911.12
2019-04-04T10:59:10.672Z,911.14
2019-04-04T11:00:10.646Z,911.13
2019-04-04T11:01:10.599Z,911.12
2019-04-04T11:02:10.580Z,911.13
2019-04-04T11:03:10.543Z,911.14
2019-04-04T11:04:10.593Z,911.12
2019-04-04T11:05:10.829Z,911.12
2019-04-04T11:06:10.436Z,911.21
2019-04-04T11:07:10.408Z,911.23
2019-04-04T11:08:10.368Z,911.23
2019-04-04T11:09:10.356Z,911.28
2019-04-04T11:10:10.484Z,911.31
2019-04-04T11:11:10.282Z,911.29
2019-04-04T11:12:10.247Z,911.30
2019-04-04T11:13:10.226Z,911.34
2019-04-04T11:14:10.196Z,911.33
2019-04-04T11:15:10.219Z,911.27
2019-04-04T11:16:10.122Z,911.29
2019-04-04T11:17:10.112Z,911.28
2019-04-04T11:18:10.083Z,911.29
2019-04-04T11:19:10.026Z,911.34
2019-04-04T11:20:10.175Z,911.38
2019-04-04T11:21:09.972Z,911.42
2019-04-04T11:22:09.955Z,911.42
2019-04-04T11:23:09.916Z,911.44
2019-04-04T11:24:09.896Z,911.43
2019-04-04T11:25:09.845Z,911.40
2019-04-04T11:26:09.820Z,911.42
2019-04-04T11:27:09.805Z,911.39
2019-04-04T11:28:09.773Z,911.38
2019-04-04T11:29:09.736Z,911.40
2019-04-04T11:30:09.702Z,911.46
2019-04-04T11:31:09.688Z,911.44
2019-04-04T11:32:09.870Z,911.49
2019-04-04T11:33:09.631Z,911.46
2019-04-04T11:34:09.585Z,911.51
2019-04-04T11:35:09.572Z,911.54
2019-04-04T11:36:09.528Z,911.54
2019-04-04T11:37:09.660Z,911.60
2019-04-04T11:38:09.486Z,911.61
2019-04-04T11:39:09.452Z,911.65
2019-04-04T11:40:09.402Z,911.67
2019-04-04T11:41:09.402Z,911.67
2019-04-04T11:42:09.355Z,911.70
2019-04-04T11:43:09.318Z,911.72
2019-04-04T11:44:09.285Z,911.76
2019-04-04T11:45:09.281Z,911.79
2019-04-04T11:46:09.233Z,911.79
2019-04-04T11:47:09.273Z,911.82
2019-04-04T11:48:09.196Z,911.81
2019-04-04T11:49:09.166Z,911.80
2019-04-04T11:50:09.118Z,911.76
2019-04-04T11:51:09.094Z,911.77
2019-04-04T11:52:09.088Z,911.70
2019-04-04T11:53:09.081Z,911.70
2019-04-04T11:54:09.029Z,911.75
2019-04-04T11:55:09.001Z,911.84
2019-04-04T11:56:08.955Z,911.88
2019-04-04T11:57:08.926Z,911.87
2019-04-04T11:58:09.050Z,911.88
2019-04-04T11:59:08.901Z,911.88
2019-04-04T12:00:08.867Z,911.95
2019-04-04T12:01:08.838Z,911.96
2019-04-04T12:02:08.807Z,911.97
2019-04-04T12:03:08.790Z,911.98
2019-04-04T12:04:08.890Z,911.95
2019-04-04T12:05:08.704Z,911.97
2019-04-04T12:06:08.678Z,911.93
2019-04-04T12:07:08.677Z,911.92
2019-04-04T12:08:08.643Z,911.95
2019-04-04T12:09:08.616Z,912.00
2019-04-04T12:10:08.612Z,912.01
2019-04-04T12:11:08.566Z,912.06
2019-04-04T12:12:08.669Z,912.13
2019-04-04T12:13:08.556Z,912.15
2019-04-04T12:14:08.487Z,912.18
2019-04-04T12:15:08.612Z,912.28
2019-04-04T12:16:08.428Z,912.73
2019-04-04T12:17:08.421Z,914.20
2019-04-04T12:18:08.358Z,915.68
2019-04-04T12:19:08.352Z,916.74
2019-04-04T12:20:08.327Z,917.87
2019-04-04T12:21:08.283Z,916.63
2019-04-04T12:22:08.289Z,918.43
2019-04-04T12:23:08.241Z,917.62
2019-04-04T12:24:08.221Z,917.35
2019-04-04T12:25:08.200Z,917.06
2019-04-04T12:26:08.159Z,912.64
2019-04-04T12:27:08.147Z,916.10
2019-04-04T12:28:08.126Z,916.04
2019-04-04T12:29:08.095Z,917.40
2019-04-04T12:30:08.073Z,917.57
2019-04-04T12:31:08.026Z,917.20